createdAt,value
2023-01-28T00:01:18.850Z,5.57
2023-01-28T00:03:51.339Z,5.67
2023-01-28T00:06:20.159Z,5.27
2023-01-28T00:08:48.479Z,5.49
2023-01-28T00:11:16.738Z,5.19
2023-01-28T00:13:46.415Z,5.30
2023-01-28T00:16:14.706Z,5.16
2023-01-28T00:18:42.943Z,5.08
2023-01-28T00:21:16.335Z,5.04
2023-01-28T00:23:48.771Z,4.68
2023-01-28T00:26:17.141Z,4.52
2023-01-28T00:28:47.148Z,4.61
2023-01-28T00:31:17.886Z,4.42
2023-01-28T00:33:46.718Z,4.30
2023-01-28T00:36:16.020Z,4.27
2023-01-28T00:38:44.591Z,4.44
2023-01-28T00:41:16.976Z,4.30
2023-01-28T00:43:46.752Z,4.24
2023-01-28T00:46:15.460Z,4.14
2023-01-28T00:48:44.892Z,4.15
2023-01-28T00:51:15.468Z,4.09
2023-01-28T00:53:44.162Z,4.16
2023-01-28T00:56:15.686Z,4.18
2023-01-28T00:58:44.091Z,4.32
2023-01-28T01:01:15.365Z,4.41
2023-01-28T01:03:43.949Z,4.27
2023-01-28T01:06:13.610Z,4.52
2023-01-28T01:08:43.272Z,4.48
2023-01-28T01:11:13.019Z,4.48
2023-01-28T01:13:41.485Z,4.41
2023-01-28T01:16:12.838Z,4.32
2023-01-28T01:18:42.993Z,4.35
2023-01-28T01:21:13.117Z,4.38
2023-01-28T01:23:41.700Z,4.12
2023-01-28T01:26:10.172Z,4.19
2023-01-28T01:28:39.760Z,4.01
2023-01-28T01:31:10.006Z,3.84
2023-01-28T01:33:40.047Z,3.46
2023-01-28T01:36:12.110Z,3.96
2023-01-28T01:38:41.139Z,4.06
2023-01-28T01:41:10.209Z,3.96
2023-01-28T01:43:52.867Z,3.89
2023-01-28T01:46:25.386Z,4.29
2023-01-28T01:48:56.408Z,4.19
2023-01-28T01:51:31.666Z,4.31
2023-01-28T01:54:01.953Z,4.21
2023-01-28T01:56:37.076Z,4.19
2023-01-28T01:59:06.436Z,3.93
2023-01-28T02:01:34.681Z,4.17
2023-01-28T02:04:08.671Z,4.25
2023-01-28T02:06:39.382Z,4.65
2023-01-28T02:09:22.854Z,4.33
2023-01-28T02:11:53.113Z,4.39
2023-01-28T02:14:30.908Z,4.47
2023-01-28T02:17:00.076Z,4.79
2023-01-28T02:19:34.237Z,4.29
2023-01-28T02:22:23.309Z,4.21
2023-01-28T02:25:22.429Z,3.96
2023-01-28T02:28:15.194Z,4.36
2023-01-28T02:30:51.222Z,4.49
2023-01-28T02:33:25.537Z,4.69
2023-01-28T02:35:55.437Z,4.61
2023-01-28T02:38:29.929Z,4.66
2023-01-28T02:41:03.955Z,4.90
2023-01-28T02:43:36.424Z,4.60
2023-01-28T02:46:32.334Z,4.59
2023-01-28T02:49:01.164Z,4.64
2023-01-28T02:51:51.019Z,4.25
2023-01-28T02:54:29.545Z,4.46
2023-01-28T02:57:05.666Z,4.50
2023-01-28T02:59:41.973Z,4.21
2023-01-28T03:02:17.529Z,4.10
2023-01-28T03:04:52.201Z,4.00
2023-01-28T03:07:21.789Z,4.33
2023-01-28T03:09:51.464Z,4.46
2023-01-28T03:12:40.412Z,3.49
2023-01-28T03:15:32.272Z,4.30
2023-01-28T03:18:22.971Z,4.21
2023-01-28T03:21:15.543Z,4.12
2023-01-28T03:24:07.599Z,4.07
2023-01-28T03:26:57.462Z,4.03
2023-01-28T03:29:44.412Z,4.17
2023-01-28T03:32:32.265Z,3.97
2023-01-28T03:35:17.776Z,4.00
2023-01-28T03:37:46.324Z,3.71
2023-01-28T03:40:19.087Z,4.09
2023-01-28T03:42:47.353Z,4.42
2023-01-28T03:45:16.304Z,4.78
2023-01-28T03:47:46.281Z,4.57
2023-01-28T03:50:14.656Z,4.63
2023-01-28T03:52:42.886Z,4.55
2023-01-28T03:55:15.115Z,4.60
2023-01-28T03:57:45.017Z,4.28
2023-01-28T04:00:14.593Z,4.68
2023-01-28T04:02:42.908Z,4.40
2023-01-28T04:05:15.978Z,4.43
2023-01-28T04:07:44.676Z,4.40
2023-01-28T04:10:13.488Z,4.34
2023-01-28T04:12:42.638Z,4.47
2023-01-28T04:15:16.925Z,4.71
2023-01-28T04:17:48.664Z,4.40
2023-01-28T04:20:19.533Z,4.87
2023-01-28T04:22:47.786Z,4.23
2023-01-28T04:25:16.512Z,4.80
2023-01-28T04:27:45.466Z,4.62
2023-01-28T04:30:14.008Z,4.32
2023-01-28T04:32:42.266Z,4.33
2023-01-28T04:35:11.307Z,4.08
2023-01-28T04:37:42.455Z,3.63
2023-01-28T04:40:12.426Z,4.31
2023-01-28T04:42:41.004Z,4.19
2023-01-28T04:45:10.280Z,4.19
2023-01-28T04:47:38.639Z,4.41
2023-01-28T04:50:10.544Z,4.75
2023-01-28T04:52:40.355Z,4.69
2023-01-28T04:55:09.729Z,4.49
2023-01-28T04:57:38.085Z,4.71
2023-01-28T05:00:07.437Z,4.77
2023-01-28T05:02:35.729Z,5.06
2023-01-28T05:05:06.277Z,4.73
2023-01-28T05:07:34.540Z,4.68
2023-01-28T05:10:04.695Z,4.59
2023-01-28T05:12:34.294Z,4.93
2023-01-28T05:15:02.755Z,4.98
2023-01-28T05:17:31.075Z,5.02
2023-01-28T05:19:59.496Z,4.90
2023-01-28T05:22:27.777Z,4.91
2023-01-28T05:24:56.058Z,5.21
2023-01-28T05:27:25.804Z,4.76
2023-01-28T05:29:54.012Z,5.05
2023-01-28T05:32:22.349Z,5.19
2023-01-28T05:34:50.563Z,5.15
2023-01-28T05:37:18.987Z,5.07
2023-01-28T05:39:47.264Z,5.13
2023-01-28T05:42:16.118Z,5.17
2023-01-28T05:44:45.914Z,5.32
2023-01-28T05:47:14.224Z,5.29
2023-01-28T05:49:42.552Z,5.33
2023-01-28T05:52:10.753Z,5.21
2023-01-28T05:54:39.107Z,5.22
2023-01-28T05:57:07.373Z,5.18
2023-01-28T05:59:35.642Z,5.19
2023-01-28T06:02:05.532Z,5.20
2023-01-28T06:04:33.956Z,5.10
2023-01-28T06:07:02.273Z,5.17
2023-01-28T06:09:30.664Z,5.14
2023-01-28T06:11:59.022Z,5.24
2023-01-28T06:14:27.409Z,5.32
2023-01-28T06:16:55.790Z,5.11
2023-01-28T06:19:25.441Z,5.31
2023-01-28T06:21:53.689Z,5.50
2023-01-28T06:24:22.097Z,5.37
2023-01-28T06:26:50.332Z,5.11
2023-01-28T06:29:18.688Z,4.85
2023-01-28T06:31:47.039Z,4.71
2023-01-28T06:34:15.576Z,4.82
2023-01-28T06:36:45.397Z,4.87
2023-01-28T06:39:13.875Z,4.97
2023-01-28T06:41:42.117Z,4.99
2023-01-28T06:44:10.413Z,5.05
2023-01-28T06:46:38.736Z,4.87
2023-01-28T06:49:06.984Z,4.46
2023-01-28T06:51:35.437Z,4.41
2023-01-28T06:54:05.182Z,4.77
2023-01-28T06:56:33.482Z,4.88
2023-01-28T06:59:01.879Z,4.79
2023-01-28T07:01:30.137Z,4.59
2023-01-28T07:03:58.628Z,4.47
2023-01-28T07:06:27.002Z,4.79
2023-01-28T07:08:55.262Z,4.49
2023-01-28T07:11:24.936Z,4.67
2023-01-28T07:13:53.175Z,4.66
2023-01-28T07:16:21.459Z,4.83
2023-01-28T07:18:49.816Z,4.97
2023-01-28T07:21:18.220Z,5.16
2023-01-28T07:23:46.624Z,5.23
2023-01-28T07:26:15.641Z,5.47
2023-01-28T07:28:45.355Z,5.53
2023-01-28T07:31:13.767Z,6.01
2023-01-28T07:33:42.051Z,6.14
2023-01-28T07:36:10.480Z,5.67
2023-01-28T07:38:38.837Z,5.17
2023-01-28T07:41:07.140Z,5.39
2023-01-28T07:43:35.505Z,5.30
2023-01-28T07:46:05.278Z,5.12
2023-01-28T07:48:33.536Z,5.27
2023-01-28T07:51:01.947Z,5.69
2023-01-28T07:53:30.239Z,5.90
2023-01-28T07:56:05.000Z,5.98
2023-01-28T07:58:34.712Z,5.91
2023-01-28T08:01:04.677Z,5.45
2023-01-28T08:03:32.986Z,5.84
2023-01-28T08:06:01.173Z,6.06
2023-01-28T08:08:29.454Z,5.78
2023-01-28T08:10:57.820Z,5.20
2023-01-28T08:13:26.052Z,5.60
2023-01-28T08:15:57.001Z,5.99
2023-01-28T08:18:26.800Z,5.68
2023-01-28T08:20:57.234Z,5.53
2023-01-28T08:23:27.026Z,5.52
2023-01-28T08:25:55.709Z,5.18
2023-01-28T08:28:23.985Z,5.82
2023-01-28T08:30:52.381Z,5.96
2023-01-28T08:33:21.736Z,6.06
2023-01-28T08:35:51.471Z,6.12
2023-01-28T08:38:20.503Z,6.23
2023-01-28T08:40:50.686Z,6.36
2023-01-28T08:43:18.988Z,6.78
2023-01-28T08:45:47.301Z,6.49
2023-01-28T08:48:18.050Z,6.16
2023-01-28T08:50:46.691Z,6.47
2023-01-28T08:56:03.838Z,6.55
2023-01-28T08:58:32.273Z,6.19
2023-01-28T09:01:05.043Z,6.48
2023-01-28T09:03:34.407Z,6.53
2023-01-28T09:06:03.171Z,6.80
2023-01-28T09:08:33.425Z,6.51
2023-01-28T09:11:02.320Z,6.61
2023-01-28T09:13:31.402Z,6.16
2023-01-28T09:15:59.731Z,6.64
2023-01-28T09:18:28.083Z,6.68
2023-01-28T09:20:56.306Z,6.62
2023-01-28T09:23:24.668Z,6.87
2023-01-28T09:26:01.566Z,6.88
2023-01-28T09:28:30.694Z,6.59
2023-01-28T09:31:03.681Z,5.48
2023-01-28T09:33:32.736Z,6.00
2023-01-28T09:36:02.050Z,6.14
2023-01-28T09:38:31.868Z,6.66
2023-01-28T09:41:02.583Z,7.04
2023-01-28T09:43:49.008Z,6.54
2023-01-28T09:46:18.709Z,6.37
2023-01-28T09:48:52.647Z,6.43
2023-01-28T09:51:33.821Z,6.16
2023-01-28T09:54:08.654Z,5.48
2023-01-28T09:56:42.859Z,6.53
2023-01-28T09:59:19.724Z,6.70
2023-01-28T10:01:56.005Z,7.38
2023-01-28T10:04:41.828Z,7.45
2023-01-28T10:07:22.358Z,7.62
2023-01-28T10:09:55.626Z,7.40
2023-01-28T10:12:42.850Z,7.27
2023-01-28T10:15:28.670Z,7.38
2023-01-28T10:18:16.017Z,7.36
2023-01-28T10:20:48.284Z,7.49
2023-01-28T10:23:23.773Z,7.46
2023-01-28T10:25:52.110Z,7.65
2023-01-28T10:28:25.357Z,8.32
2023-01-28T10:30:53.798Z,8.08
2023-01-28T10:33:30.113Z,7.96
2023-01-28T10:35:58.857Z,7.82
2023-01-28T10:38:29.272Z,6.93
2023-01-28T10:41:02.015Z,7.46
2023-01-28T10:43:34.925Z,7.62
2023-01-28T10:46:09.170Z,8.09
2023-01-28T10:48:42.787Z,8.10
2023-01-28T10:51:11.046Z,7.82
2023-01-28T10:53:44.261Z,8.03
2023-01-28T10:56:16.002Z,7.90
2023-01-28T10:59:03.465Z,7.88
2023-01-28T11:01:46.413Z,8.37
2023-01-28T11:04:25.965Z,7.78
2023-01-28T11:06:56.629Z,8.21
2023-01-28T11:09:27.111Z,7.69
2023-01-28T11:11:57.924Z,7.94
2023-01-28T11:14:28.930Z,8.21
2023-01-28T11:16:59.533Z,8.36
2023-01-28T11:19:35.279Z,7.19
2023-01-28T11:22:04.347Z,8.36
2023-01-28T11:24:35.607Z,7.81
2023-01-28T11:27:17.928Z,8.26
2023-01-28T11:29:47.885Z,8.32
2023-01-28T11:32:20.869Z,8.39
2023-01-28T11:34:54.688Z,8.21
2023-01-28T11:37:24.477Z,7.85
2023-01-28T11:40:20.063Z,7.84
2023-01-28T11:42:52.123Z,8.40
2023-01-28T11:45:29.527Z,8.39
2023-01-28T11:48:13.240Z,9.02
2023-01-28T11:50:51.911Z,9.37
2023-01-28T11:53:44.297Z,9.27
2023-01-28T11:56:37.738Z,9.27
2023-01-28T11:59:21.317Z,8.99
2023-01-28T12:02:02.050Z,9.39
2023-01-28T12:04:50.818Z,9.63
2023-01-28T12:07:30.664Z,8.98
2023-01-28T12:10:04.204Z,9.39
2023-01-28T12:13:07.874Z,9.19
2023-01-28T12:16:01.694Z,9.63
2023-01-28T12:18:53.782Z,9.78
2023-01-28T12:21:35.266Z,9.40
2023-01-28T12:24:21.647Z,9.23
2023-01-28T12:26:53.598Z,9.38
2023-01-28T12:29:32.362Z,9.87
2023-01-28T12:32:15.408Z,9.56
2023-01-28T12:35:15.217Z,9.89
2023-01-28T12:38:00.254Z,9.84
2023-01-28T12:40:54.827Z,9.88
2023-01-28T12:43:34.089Z,9.54
2023-01-28T12:46:07.634Z,9.80
2023-01-28T12:48:41.047Z,9.68
2023-01-28T12:51:16.151Z,9.32
2023-01-28T12:53:52.103Z,9.81
2023-01-28T12:56:24.935Z,9.88
2023-01-28T12:58:58.707Z,10.43
2023-01-28T13:01:31.267Z,9.87
2023-01-28T13:04:09.368Z,9.84
2023-01-28T13:06:45.941Z,9.92
2023-01-28T13:09:19.253Z,9.62
2023-01-28T13:11:49.582Z,9.89
2023-01-28T13:14:18.711Z,9.56
2023-01-28T13:16:47.070Z,10.14
2023-01-28T13:19:26.491Z,10.25
2023-01-28T13:21:56.292Z,9.94
2023-01-28T13:24:33.946Z,9.93
2023-01-28T13:27:16.386Z,10.13
2023-01-28T13:29:50.225Z,9.58
2023-01-28T13:32:34.538Z,9.37
2023-01-28T13:35:09.246Z,8.71
2023-01-28T13:37:41.885Z,8.40
2023-01-28T13:40:25.123Z,8.18
2023-01-28T13:43:02.760Z,8.04
2023-01-28T13:45:34.269Z,8.44
2023-01-28T13:48:28.121Z,8.54
2023-01-28T13:50:57.652Z,8.61
2023-01-28T13:53:38.503Z,8.84
2023-01-28T13:56:18.336Z,9.26
2023-01-28T13:59:26.828Z,9.20
2023-01-28T14:02:30.409Z,8.98
2023-01-28T14:05:37.422Z,8.49
2023-01-28T14:08:58.505Z,8.67
2023-01-28T14:11:55.738Z,8.44
2023-01-28T14:14:58.279Z,8.47
2023-01-28T14:17:36.613Z,8.51
2023-01-28T14:20:06.679Z,9.06
2023-01-28T14:22:35.053Z,9.09
2023-01-28T14:25:05.278Z,8.50
2023-01-28T14:27:39.668Z,8.18
2023-01-28T14:30:17.338Z,8.02
2023-01-28T14:32:50.846Z,8.29
2023-01-28T14:35:28.796Z,8.44
2023-01-28T14:37:59.172Z,8.29
2023-01-28T14:40:31.668Z,8.08
2023-01-28T14:43:00.244Z,8.19
2023-01-28T14:45:49.995Z,8.21
2023-01-28T14:48:26.304Z,8.34
2023-01-28T14:51:13.669Z,8.36
2023-01-28T14:53:58.669Z,8.29
2023-01-28T14:56:42.679Z,8.45
2023-01-28T14:59:19.934Z,8.50
2023-01-28T15:01:50.447Z,8.10
2023-01-28T15:04:29.672Z,7.79
2023-01-28T15:07:02.761Z,7.68
2023-01-28T15:09:31.147Z,7.75
2023-01-28T15:12:03.124Z,7.85
2023-01-28T15:14:33.480Z,7.69
2023-01-28T15:17:05.079Z,7.59
2023-01-28T15:19:36.141Z,7.75
2023-01-28T15:22:06.805Z,7.55
2023-01-28T15:24:37.343Z,7.49
2023-01-28T15:27:07.093Z,7.49
2023-01-28T15:29:37.861Z,7.22
2023-01-28T15:32:07.274Z,7.03
2023-01-28T15:34:37.237Z,7.01
2023-01-28T15:37:05.632Z,7.36
2023-01-28T15:39:35.306Z,7.08
2023-01-28T15:42:07.435Z,6.78
2023-01-28T15:44:39.329Z,6.74
2023-01-28T15:47:17.302Z,6.81
2023-01-28T15:49:47.875Z,6.85
2023-01-28T15:52:16.459Z,6.74
2023-01-28T15:54:48.725Z,6.63
2023-01-28T15:57:20.903Z,6.60
2023-01-28T15:59:51.437Z,6.35
2023-01-28T16:02:24.103Z,6.39
2023-01-28T16:04:59.524Z,6.23
2023-01-28T16:07:30.342Z,6.14
2023-01-28T16:10:01.810Z,6.03
2023-01-28T16:12:30.390Z,6.12
2023-01-28T16:15:03.112Z,6.32
2023-01-28T16:17:36.069Z,5.64
2023-01-28T16:20:07.417Z,6.45
2023-01-28T16:22:38.258Z,6.36
2023-01-28T16:25:26.666Z,6.31
2023-01-28T16:27:55.014Z,6.34
2023-01-28T16:30:24.969Z,6.03
2023-01-28T16:32:55.610Z,5.67
2023-01-28T16:35:25.374Z,5.70
2023-01-28T16:37:53.721Z,5.50
2023-01-28T16:40:24.845Z,5.83
2023-01-28T16:42:55.658Z,5.55
2023-01-28T16:45:26.588Z,5.40
2023-01-28T16:47:55.071Z,5.78
2023-01-28T16:50:23.453Z,5.71
2023-01-28T16:52:55.272Z,5.73
2023-01-28T16:55:24.146Z,5.82
2023-01-28T16:57:54.794Z,5.72
2023-01-28T17:00:27.217Z,5.52
2023-01-28T17:02:56.388Z,5.35
2023-01-28T17:05:26.971Z,5.52
2023-01-28T17:07:59.357Z,5.42
2023-01-28T17:10:27.778Z,5.10
2023-01-28T17:12:56.005Z,4.79
2023-01-28T17:15:25.787Z,5.53
2023-01-28T17:17:55.524Z,5.58
2023-01-28T17:20:23.780Z,5.74
2023-01-28T17:22:52.024Z,5.95
2023-01-28T17:25:21.449Z,5.78
2023-01-28T17:27:50.431Z,5.56
2023-01-28T17:30:21.180Z,5.71
2023-01-28T17:32:50.830Z,5.57
2023-01-28T17:35:19.404Z,5.49
2023-01-28T17:37:47.803Z,5.81
2023-01-28T17:40:16.210Z,5.75
2023-01-28T17:42:44.565Z,5.63
2023-01-28T17:45:13.277Z,5.80
2023-01-28T17:47:41.879Z,5.51
2023-01-28T17:50:13.073Z,5.58
2023-01-28T17:52:42.034Z,5.70
2023-01-28T17:55:12.232Z,5.69
2023-01-28T17:57:40.632Z,5.59
2023-01-28T18:00:11.952Z,5.66
2023-01-28T18:02:40.510Z,5.93
2023-01-28T18:05:09.477Z,5.97
2023-01-28T18:07:39.118Z,5.83
2023-01-28T18:10:08.581Z,5.63
2023-01-28T18:12:37.007Z,5.30
2023-01-28T18:15:05.738Z,5.64
2023-01-28T18:17:34.220Z,5.94
2023-01-28T18:20:03.929Z,5.77
2023-01-28T18:22:34.569Z,5.60
2023-01-28T18:25:04.438Z,5.44
2023-01-28T18:27:32.790Z,5.56
2023-01-28T18:30:01.071Z,5.79
2023-01-28T18:32:29.476Z,5.56
2023-01-28T18:34:57.777Z,6.04
2023-01-28T18:37:26.157Z,6.07
2023-01-28T18:39:54.525Z,6.26
2023-01-28T18:42:24.197Z,6.49
2023-01-28T18:44:52.425Z,6.52
2023-01-28T18:47:20.874Z,6.23
2023-01-28T18:49:49.213Z,6.55
2023-01-28T18:52:17.536Z,6.74
2023-01-28T18:54:45.847Z,7.01
2023-01-28T18:57:14.191Z,6.99
2023-01-28T18:59:44.037Z,6.93
2023-01-28T19:02:15.985Z,7.13
2023-01-28T19:04:44.282Z,6.75
2023-01-28T19:07:12.588Z,6.97
2023-01-28T19:09:40.912Z,6.91
2023-01-28T19:12:09.331Z,6.91
2023-01-28T19:14:37.602Z,6.94
2023-01-28T19:17:07.342Z,6.99
2023-01-28T19:19:35.637Z,6.69
2023-01-28T19:22:03.877Z,6.98
2023-01-28T19:24:35.392Z,6.83
2023-01-28T19:27:04.024Z,6.76
2023-01-28T19:29:32.283Z,6.90
2023-01-28T19:32:00.757Z,6.98
2023-01-28T19:34:31.081Z,6.97
2023-01-28T19:36:59.420Z,6.97
2023-01-28T19:39:27.803Z,6.50
2023-01-28T19:42:02.159Z,6.54
2023-01-28T19:44:30.713Z,6.56
2023-01-28T19:47:00.089Z,6.28
2023-01-28T19:49:28.389Z,6.04
2023-01-28T19:51:58.213Z,6.63
2023-01-28T19:54:29.362Z,6.60
2023-01-28T19:56:57.667Z,6.39
2023-01-28T19:59:25.947Z,6.45
2023-01-28T20:01:54.298Z,6.33
2023-01-28T20:04:22.659Z,6.07
2023-01-28T20:06:51.216Z,5.94
2023-01-28T20:09:21.544Z,6.15
2023-01-28T20:11:56.485Z,5.94
2023-01-28T20:14:33.659Z,6.06
2023-01-28T20:17:02.083Z,5.45
2023-01-28T20:19:30.418Z,5.34
2023-01-28T20:21:58.868Z,5.24
2023-01-28T20:24:28.675Z,5.63
2023-01-28T20:26:57.018Z,5.49
2023-01-28T20:29:31.251Z,5.57
2023-01-28T20:32:15.194Z,5.74
2023-01-28T20:34:44.696Z,5.08
2023-01-28T20:37:12.994Z,5.17
2023-01-28T20:39:42.655Z,5.24
2023-01-28T20:42:13.425Z,5.42
2023-01-28T20:44:41.925Z,5.61
2023-01-28T20:47:10.440Z,5.59
2023-01-28T20:49:38.758Z,5.50
2023-01-28T20:52:07.166Z,5.46
2023-01-28T20:54:35.475Z,5.39
2023-01-28T20:57:05.243Z,5.03
2023-01-28T20:59:33.622Z,5.78
2023-01-28T21:02:01.972Z,5.92
2023-01-28T21:04:30.296Z,5.53
2023-01-28T21:06:58.663Z,5.55
2023-01-28T21:09:28.006Z,5.82
2023-01-28T21:11:56.250Z,5.77
2023-01-28T21:14:26.131Z,6.05
2023-01-28T21:16:54.413Z,6.04
2023-01-28T21:19:22.995Z,6.02
2023-01-28T21:21:51.432Z,6.10
2023-01-28T21:24:19.761Z,5.75
2023-01-28T21:26:48.170Z,6.21
2023-01-28T21:29:17.561Z,6.32
2023-01-28T21:31:47.332Z,6.25
2023-01-28T21:34:16.109Z,6.42
2023-01-28T21:36:44.414Z,6.40
2023-01-28T21:39:12.726Z,6.27
2023-01-28T21:41:41.348Z,6.30
2023-01-28T21:44:13.226Z,6.07
2023-01-28T21:46:41.623Z,5.80
2023-01-28T21:49:12.704Z,5.99
2023-01-28T21:51:46.287Z,6.13
2023-01-28T21:54:16.481Z,6.09
2023-01-28T21:56:45.983Z,6.02
2023-01-28T21:59:34.866Z,4.96
2023-01-28T22:02:05.105Z,5.30
2023-01-28T22:04:36.885Z,5.42
2023-01-28T22:07:07.578Z,5.56
2023-01-28T22:09:36.610Z,5.35
2023-01-28T22:12:07.093Z,5.42
2023-01-28T22:14:35.610Z,5.14
2023-01-28T22:17:04.319Z,5.56
2023-01-28T22:19:32.655Z,5.18
2023-01-28T22:22:02.600Z,4.75
2023-01-28T22:24:30.955Z,4.32
2023-01-28T22:26:59.793Z,4.94
2023-01-28T22:29:28.101Z,4.95
2023-01-28T22:31:56.370Z,5.05
2023-01-28T22:34:25.076Z,4.75
2023-01-28T22:36:53.470Z,4.71
2023-01-28T22:39:23.145Z,4.55
2023-01-28T22:41:51.359Z,4.76
2023-01-28T22:44:20.987Z,4.98
2023-01-28T22:46:49.349Z,5.19
2023-01-28T22:49:17.681Z,5.01
2023-01-28T22:51:45.929Z,4.84
2023-01-28T22:54:15.395Z,4.39
2023-01-28T22:56:45.092Z,4.65
2023-01-28T22:59:13.791Z,4.30
2023-01-28T23:01:42.647Z,4.90
2023-01-28T23:04:11.002Z,4.97
2023-01-28T23:06:39.569Z,4.99
2023-01-28T23:09:07.868Z,5.04
2023-01-28T23:11:36.114Z,5.01
2023-01-28T23:14:23.340Z,4.83
2023-01-28T23:17:09.365Z,4.74
2023-01-28T23:19:55.578Z,4.40
2023-01-28T23:22:43.526Z,3.99
2023-01-28T23:25:12.294Z,4.15
2023-01-28T23:27:40.535Z,4.30
2023-01-28T23:30:12.181Z,4.42
2023-01-28T23:32:43.870Z,4.63
2023-01-28T23:35:12.580Z,4.61
2023-01-28T23:37:41.696Z,4.34
2023-01-28T23:40:10.974Z,4.02
2023-01-28T23:42:39.305Z,3.78
2023-01-28T23:45:10.505Z,3.70
2023-01-28T23:47:38.784Z,3.75
2023-01-28T23:50:08.763Z,3.98
2023-01-28T23:52:37.135Z,3.84
2023-01-28T23:55:06.421Z,3.43
2023-01-28T23:57:34.935Z,3.30
